Time;durP1;ratioP1;P1;durP2;ratioP2;P2;SDS_P1;SDS_P2;PMS_P1;PMS_P2;Temp;Humidity;BMP_temperature;BMP_pressure;BME280_temperature;BME280_humidity;BME280_pressure;Samples;Min_cycle;Max_cycle;Signal;HPM_P1;HPM_P2
2023/05/19 00:02:17;;;;;;;5.40;3.70;;;;;;;11.26;62.19;96639.19;5028577;28;20469;-70
2023/05/19 00:04:42;;;;;;;5.67;4.43;;;;;;;11.16;61.96;96630.84;5028350;28;21020;-69
2023/05/19 00:07:10;;;;;;;7.93;3.70;;;;;;;11.29;62.49;96642.56;5028639;28;20410;-69
2023/05/19 00:09:36;;;;;;;6.67;3.90;;;;;;;11.31;62.27;96635.44;5028369;28;20262;-70
2023/05/19 00:12:01;;;;;;;4.70;3.73;;;;;;;11.20;62.13;96640.31;5028464;28;20418;-70
2023/05/19 00:14:27;;;;;;;4.33;3.37;;;;;;;11.25;62.18;96640.13;5028108;28;20433;-69
2023/05/19 00:16:54;;;;;;;4.90;4.23;;;;;;;11.10;61.76;96650.38;5028259;28;20182;-70
2023/05/19 00:19:20;;;;;;;3.60;3.10;;;;;;;11.05;61.45;96638.31;5027999;28;20422;-71
2023/05/19 00:21:46;;;;;;;4.30;3.37;;;;;;;11.03;61.94;96635.75;5028039;28;20469;-68
2023/05/19 00:24:12;;;;;;;4.77;3.20;;;;;;;10.96;61.66;96629.94;5027756;28;20201;-72
2023/05/19 00:26:38;;;;;;;6.00;3.47;;;;;;;11.03;61.65;96635.75;5028003;28;20180;-72
2023/05/19 00:29:03;;;;;;;4.50;3.40;;;;;;;11.16;61.22;96625.59;5028237;28;20950;-72
2023/05/19 00:31:30;;;;;;;3.93;2.97;;;;;;;11.11;61.41;96627.56;5028058;28;20176;-73
2023/05/19 00:33:55;;;;;;;7.30;4.13;;;;;;;11.10;60.96;96624.09;5027720;28;20183;-70
2023/05/19 00:36:21;;;;;;;4.40;4.00;;;;;;;11.16;61.13;96620.34;5027938;28;20487;-72
2023/05/19 00:38:47;;;;;;;4.50;3.63;;;;;;;11.05;60.71;96615.53;5027795;28;20175;-71
2023/05/19 00:41:12;;;;;;;4.70;3.70;;;;;;;11.01;61.40;96614.81;5027862;28;20668;-72
2023/05/19 00:43:37;;;;;;;6.23;4.17;;;;;;;10.71;61.78;96616.94;5027430;28;20199;-72
2023/05/19 00:46:03;;;;;;;7.37;4.50;;;;;;;10.83;61.67;96620.84;5027334;28;20218;-71
2023/05/19 00:48:28;;;;;;;5.40;4.07;;;;;;;10.77;61.93;96615.84;5027838;28;20179;-68
2023/05/19 00:51:03;;;;;;;5.70;4.50;;;;;;;10.92;61.56;96617.84;5027451;28;20198;-70
2023/05/19 00:53:29;;;;;;;5.03;4.53;;;;;;;10.87;61.83;96618.97;5008572;28;20183;-72
2023/05/19 00:55:56;;;;;;;6.07;4.13;;;;;;;10.65;62.61;96614.56;5007936;28;20427;-68
2023/05/19 00:58:22;;;;;;;5.03;3.70;;;;;;;10.73;62.38;96609.88;5007807;28;20815;-70
2023/05/19 01:00:49;;;;;;;5.97;4.43;;;;;;;10.67;62.62;96601.38;5006835;28;20478;-71
2023/05/19 01:03:19;;;;;;;5.97;4.47;;;;;;;10.55;63.20;96610.63;5007738;28;20788;-70
2023/05/19 01:05:44;;;;;;;8.53;4.90;;;;;;;10.50;62.72;96591.59;5007597;28;20891;-71
2023/05/19 01:08:10;;;;;;;7.60;4.37;;;;;;;10.70;62.82;96596.88;5007720;28;20419;-72
2023/05/19 01:10:36;;;;;;;8.20;5.23;;;;;;;10.69;62.05;96592.53;5007605;28;20179;-72
2023/05/19 01:13:05;;;;;;;9.13;4.83;;;;;;;10.70;62.16;96596.88;5007707;28;20630;-69
2023/05/19 01:15:48;;;;;;;7.40;5.10;;;;;;;10.61;62.20;96599.88;5007112;28;20712;-71
2023/05/19 01:18:22;;;;;;;9.73;4.97;;;;;;;10.58;62.26;96600.88;5007457;28;21203;-69
2023/05/19 01:21:02;;;;;;;6.30;4.13;;;;;;;10.59;62.34;96606.97;5007636;28;20459;-72
2023/05/19 01:23:55;;;;;;;7.47;4.60;;;;;;;10.44;62.95;96604.94;5007337;28;20784;-69
2023/05/19 01:26:34;;;;;;;7.10;4.90;;;;;;;10.52;62.80;96608.97;5004614;28;20423;-71
2023/05/19 01:29:51;;;;;;;6.77;4.57;;;;;;;10.46;62.45;96608.34;5007501;28;20434;-71
2023/05/19 01:32:19;;;;;;;8.23;4.60;;;;;;;10.44;62.82;96597.94;4994955;28;20427;-71
2023/05/19 01:34:48;;;;;;;7.10;5.10;;;;;;;10.64;62.12;96607.63;5007017;28;20767;-71
2023/05/19 01:37:15;;;;;;;8.00;5.40;;;;;;;10.46;62.76;96608.34;5007317;28;20422;-70
2023/05/19 01:39:43;;;;;;;7.20;4.70;;;;;;;10.54;62.67;96608.91;5006186;28;20885;-71
2023/05/19 01:42:09;;;;;;;7.30;4.90;;;;;;;10.60;62.39;96613.91;5016697;28;20466;-71
2023/05/19 01:44:35;;;;;;;6.33;4.10;;;;;;;10.59;62.88;96612.22;5013886;28;20434;-71
2023/05/19 01:47:01;;;;;;;8.33;6.10;;;;;;;10.50;62.96;96609.94;5011562;28;20431;-70
2023/05/19 01:49:27;;;;;;;6.37;5.37;;;;;;;10.56;63.15;96604.47;5008890;28;20176;-70
2023/05/19 01:51:52;;;;;;;7.77;4.90;;;;;;;10.38;63.28;96608.66;5012781;28;20498;-69
2023/05/19 01:54:18;;;;;;;6.60;4.63;;;;;;;10.34;63.29;96609.69;5026248;28;20192;-70
2023/05/19 01:57:06;;;;;;;8.60;4.90;;;;;;;10.53;63.13;96609.81;5025555;28;20282;-71
2023/05/19 01:59:53;;;;;;;8.23;4.73;;;;;;;10.59;62.72;96605.19;5023146;28;20557;-71
2023/05/19 02:02:33;;;;;;;8.73;5.03;;;;;;;10.71;62.18;96608.22;5026748;28;20552;-70
2023/05/19 02:05:13;;;;;;;5.47;4.53;;;;;;;10.53;62.79;96601.94;5026601;28;20438;-70
2023/05/19 02:07:56;;;;;;;6.60;4.93;;;;;;;10.48;63.13;96606.53;5026752;28;20440;-71
2023/05/19 02:10:29;;;;;;;9.87;4.60;;;;;;;10.43;63.25;96606.72;5026549;28;20402;-70
2023/05/19 02:12:59;;;;;;;9.67;7.10;;;;;;;10.45;63.65;96607.50;5030150;28;20793;-70
2023/05/19 02:15:27;;;;;;;9.00;4.47;;;;;;;10.55;63.44;96605.38;5030273;28;20418;-70
2023/05/19 02:17:55;;;;;;;10.20;4.97;;;;;;;10.64;63.22;96602.38;5030519;28;20411;-69
2023/05/19 02:20:23;;;;;;;9.23;4.33;;;;;;;10.71;63.07;96595.94;5031253;28;21245;-70
2023/05/19 02:22:48;;;;;;;7.90;5.40;;;;;;;10.70;63.51;96599.50;5032238;28;20824;-70
2023/05/19 02:25:14;;;;;;;6.13;4.20;;;;;;;10.54;64.31;96596.66;5031231;28;20513;-69
2023/05/19 02:27:40;;;;;;;5.80;4.00;;;;;;;10.67;64.04;96594.34;5031414;28;20536;-69
2023/05/19 02:30:07;;;;;;;6.37;4.47;;;;;;;10.49;64.77;96590.72;5030970;28;20554;-69
2023/05/19 02:32:32;;;;;;;7.07;4.70;;;;;;;10.38;64.97;96591.16;5031080;28;20413;-69
2023/05/19 02:34:58;;;;;;;10.53;6.60;;;;;;;10.31;64.73;96589.69;5030827;28;20433;-69
2023/05/19 02:37:27;;;;;;;6.30;3.97;;;;;;;10.35;65.50;96593.91;5030840;28;20262;-69
2023/05/19 02:39:53;;;;;;;7.80;4.70;;;;;;;10.31;65.05;96594.09;5031216;28;20536;-69
2023/05/19 02:42:19;;;;;;;8.47;5.90;;;;;;;10.24;65.42;96592.59;5030814;28;20576;-69
2023/05/19 02:44:44;;;;;;;7.60;4.93;;;;;;;10.31;65.28;96594.94;5030559;28;21086;-69
2023/05/19 02:47:10;;;;;;;9.47;5.43;;;;;;;10.37;64.74;96586.84;5029993;28;20195;-69
2023/05/19 02:49:35;;;;;;;9.87;4.83;;;;;;;10.39;64.72;96586.75;5030034;28;20279;-70
2023/05/19 02:52:02;;;;;;;7.97;5.03;;;;;;;10.25;64.82;96582.06;5022758;28;20168;-70
2023/05/19 02:54:29;;;;;;;7.57;4.90;;;;;;;10.41;64.55;96581.47;5008413;28;20315;-69
2023/05/19 02:56:55;;;;;;;8.63;5.87;;;;;;;10.43;65.01;96584.88;5009979;28;20513;-69
2023/05/19 02:59:20;;;;;;;8.30;4.93;;;;;;;10.57;65.10;96586.00;5008584;28;20461;-69
2023/05/19 03:01:46;;;;;;;6.07;5.23;;;;;;;10.44;64.78;96582.19;5009998;28;20295;-70
2023/05/19 03:04:12;;;;;;;10.30;5.00;;;;;;;10.26;65.10;96581.13;5009602;28;20968;-68
2023/05/19 03:06:38;;;;;;;11.90;5.07;;;;;;;10.29;65.26;96581.03;5010031;28;20601;-68
2023/05/19 03:09:04;;;;;;;9.27;4.87;;;;;;;10.15;65.80;96578.91;5009861;28;20419;-69
2023/05/19 03:11:30;;;;;;;6.90;5.07;;;;;;;10.09;66.03;96579.16;5009784;28;20161;-69
2023/05/19 03:13:55;;;;;;;9.13;5.00;;;;;;;10.20;65.36;96576.09;5010216;28;20183;-70
2023/05/19 03:16:21;;;;;;;9.40;4.20;;;;;;;10.09;65.46;96571.31;5024914;28;20230;-69
2023/05/19 03:18:46;;;;;;;11.13;4.30;;;;;;;10.16;64.84;96561.44;5009715;28;20180;-69
2023/05/19 03:21:12;;;;;;;6.93;4.80;;;;;;;10.13;65.06;96564.16;5009533;28;20204;-69
2023/05/19 03:23:37;;;;;;;12.93;4.90;;;;;;;10.13;65.27;96564.16;5008366;28;20238;-68
2023/05/19 03:26:03;;;;;;;12.50;5.73;;;;;;;10.30;64.66;96569.63;5009572;28;20750;-69
2023/05/19 03:28:28;;;;;;;5.77;5.20;;;;;;;10.28;64.55;96579.34;5009769;28;20176;-69
2023/05/19 03:30:54;;;;;;;7.93;5.10;;;;;;;10.13;65.12;96574.66;5009867;28;20271;-69
2023/05/19 03:33:19;;;;;;;6.10;5.10;;;;;;;10.12;65.46;96579.03;5009984;28;20180;-69
2023/05/19 03:35:45;;;;;;;8.63;5.10;;;;;;;10.08;66.12;96571.34;5010229;28;20196;-68
2023/05/19 03:38:10;;;;;;;11.10;5.20;;;;;;;10.28;65.83;96578.44;5009831;28;20177;-69
2023/05/19 03:40:36;;;;;;;12.03;4.90;;;;;;;10.32;65.74;96572.19;5009360;28;20207;-69
2023/05/19 03:43:01;;;;;;;8.07;4.73;;;;;;;10.33;65.77;96574.75;5009276;28;20180;-69
2023/05/19 03:45:27;;;;;;;8.20;4.83;;;;;;;10.25;65.15;96568.94;5008952;28;20199;-70
2023/05/19 03:47:52;;;;;;;10.90;5.13;;;;;;;10.22;65.43;96571.66;5009062;28;20188;-68
2023/05/19 03:50:18;;;;;;;5.50;4.77;;;;;;;10.17;65.49;96574.47;5009439;28;20177;-69
2023/05/19 03:52:45;;;;;;;13.00;5.20;;;;;;;10.20;65.28;96570.00;5021703;28;20186;-69
2023/05/19 03:55:11;;;;;;;9.10;5.80;;;;;;;10.12;65.53;96570.31;5028429;28;20255;-70
2023/05/19 03:57:36;;;;;;;8.93;4.70;;;;;;;10.20;65.54;96570.00;5028719;28;20410;-70
2023/05/19 04:00:04;;;;;;;9.80;5.03;;;;;;;10.25;65.32;96573.31;5030019;28;20501;-69
2023/05/19 04:02:30;;;;;;;13.63;5.40;;;;;;;10.36;64.96;96574.63;5028609;28;20394;-69
2023/05/19 04:04:56;;;;;;;6.30;5.13;;;;;;;10.47;65.08;96579.44;5029003;28;20530;-69
2023/05/19 04:07:21;;;;;;;9.17;5.83;;;;;;;10.35;65.76;96578.16;5029348;28;20874;-69
2023/05/19 04:09:47;;;;;;;9.70;5.67;;;;;;;10.42;64.93;96577.91;5029418;28;20171;-70
2023/05/19 04:12:13;;;;;;;16.60;6.00;;;;;;;10.48;65.09;96577.66;5029185;28;20172;-68
2023/05/19 04:14:38;;;;;;;5.60;4.37;;;;;;;10.64;64.41;96577.91;5028640;28;20227;-69
2023/05/19 04:17:04;;;;;;;8.23;4.33;;;;;;;10.63;64.73;96573.56;5029248;28;20218;-69
2023/05/19 04:19:30;;;;;;;5.63;5.00;;;;;;;10.60;64.37;96571.91;5029449;28;20552;-70
2023/05/19 04:21:55;;;;;;;7.03;5.60;;;;;;;10.74;64.31;96566.94;5028965;28;20207;-70
2023/05/19 04:24:21;;;;;;;8.97;5.17;;;;;;;10.64;64.71;96570.88;5028491;28;20207;-70
2023/05/19 04:26:46;;;;;;;8.00;4.90;;;;;;;10.70;64.38;96562.75;5029106;28;20207;-68
2023/05/19 04:29:12;;;;;;;7.00;4.60;;;;;;;10.30;65.81;96566.13;5028727;28;20176;-70
2023/05/19 04:31:39;;;;;;;13.27;4.97;;;;;;;10.52;65.15;96574.84;5028070;28;20622;-70
2023/05/19 04:34:06;;;;;;;9.37;4.93;;;;;;;10.50;65.15;96571.44;5027407;28;20222;-69
2023/05/19 04:36:32;;;;;;;10.30;5.10;;;;;;;10.66;64.92;96570.81;5028255;28;20956;-69
2023/05/19 04:39:03;;;;;;;9.30;5.03;;;;;;;10.79;64.33;96572.00;5027819;28;20929;-69
2023/05/19 04:41:29;;;;;;;8.80;4.77;;;;;;;10.98;63.60;96559.81;5027790;28;20470;-69
2023/05/19 04:43:56;;;;;;;6.77;4.33;;;;;;;11.29;62.68;96558.50;5028266;28;20793;-69
2023/05/19 04:46:23;;;;;;;11.13;5.90;;;;;;;11.45;62.09;96569.16;5029745;28;20270;-70
2023/05/19 04:48:49;;;;;;;6.60;4.70;;;;;;;11.32;62.39;96570.63;5028444;28;20441;-69
2023/05/19 04:51:16;;;;;;;11.40;4.70;;;;;;;11.53;61.36;96564.41;5027321;28;20415;-70
2023/05/19 04:53:42;;;;;;;5.63;4.40;;;;;;;11.55;61.77;96565.22;5007746;28;20450;-69
2023/05/19 04:56:08;;;;;;;10.70;4.47;;;;;;;11.36;62.42;96565.19;5008372;28;20423;-69
2023/05/19 04:58:34;;;;;;;13.20;6.53;;;;;;;11.18;62.87;96573.84;5008359;28;20788;-70
2023/05/19 05:00:59;;;;;;;7.73;4.70;;;;;;;10.97;63.63;96571.22;5007641;28;20458;-69
2023/05/19 05:03:25;;;;;;;9.60;4.97;;;;;;;10.63;64.55;96577.06;5012324;28;20885;-69
2023/05/19 05:05:51;;;;;;;7.70;4.70;;;;;;;10.58;65.48;96569.38;5023917;28;20264;-68
2023/05/19 05:08:21;;;;;;;13.93;7.33;;;;;;;10.55;65.21;96571.25;5026283;28;20619;-69
2023/05/19 05:10:50;;;;;;;8.17;4.97;;;;;;;10.87;69.16;96571.69;5025424;28;20183;-70
2023/05/19 05:13:16;;;;;;;6.40;4.77;;;;;;;10.98;66.86;96565.06;5025166;28;20516;-70
2023/05/19 05:15:41;;;;;;;10.13;5.13;;;;;;;10.73;64.75;96572.28;5025740;28;20454;-69
2023/05/19 05:18:07;;;;;;;10.20;5.27;;;;;;;10.75;65.03;96568.66;5026516;28;20275;-71
2023/05/19 05:20:33;;;;;;;5.30;4.80;;;;;;;10.70;65.20;96578.50;5026275;28;20579;-70
2023/05/19 05:22:59;;;;;;;11.17;5.33;;;;;;;10.76;64.68;96572.97;5025370;28;20187;-71
2023/05/19 05:25:25;;;;;;;11.73;4.93;;;;;;;10.68;65.14;96564.59;5024663;28;20312;-70
2023/05/19 05:27:51;;;;;;;10.60;5.30;;;;;;;10.54;65.59;96575.66;5017783;28;20439;-70
2023/05/19 05:30:16;;;;;;;7.37;4.60;;;;;;;10.69;65.09;96565.44;5027687;28;20233;-69
2023/05/19 05:32:41;;;;;;;11.23;5.83;;;;;;;10.70;65.33;96565.38;5040654;28;20230;-70
2023/05/19 05:35:07;;;;;;;6.60;5.97;;;;;;;10.75;64.83;96563.41;5037116;28;20248;-70
2023/05/19 05:37:33;;;;;;;12.30;4.97;;;;;;;10.90;64.88;96566.31;5035203;28;20250;-71
2023/05/19 05:39:58;;;;;;;10.50;6.73;;;;;;;10.84;64.79;96566.56;5033103;28;20183;-71
2023/05/19 05:42:24;;;;;;;11.23;5.53;;;;;;;10.88;64.77;96555.88;5027344;28;20203;-70
2023/05/19 05:44:49;;;;;;;10.17;6.17;;;;;;;10.75;65.49;96575.69;5026487;28;20191;-71
2023/05/19 05:47:15;;;;;;;9.70;6.00;;;;;;;10.61;66.31;96581.50;5030886;28;20732;-69
2023/05/19 05:49:42;;;;;;;9.37;6.23;;;;;;;10.49;65.96;96567.13;5032567;28;20198;-69
2023/05/19 05:52:11;;;;;;;8.90;5.17;;;;;;;10.50;66.16;96579.31;5033144;28;20798;-73
2023/05/19 05:54:36;;;;;;;7.27;5.93;;;;;;;10.57;66.37;96577.28;5033177;28;20434;-70
2023/05/19 05:57:02;;;;;;;13.47;5.90;;;;;;;10.55;66.59;96579.13;5032712;28;20421;-69
2023/05/19 05:59:28;;;;;;;10.57;5.53;;;;;;;10.56;66.94;96581.69;5033486;28;20205;-71
2023/05/19 06:01:53;;;;;;;8.10;5.27;;;;;;;10.43;66.26;96579.63;5031272;28;20838;-67
2023/05/19 06:04:19;;;;;;;8.23;5.50;;;;;;;10.59;66.34;96573.69;5031837;28;20631;-69
2023/05/19 06:06:45;;;;;;;8.97;5.67;;;;;;;10.74;66.04;96584.47;5031908;28;20210;-71
2023/05/19 06:09:11;;;;;;;9.03;5.40;;;;;;;11.31;68.91;96569.75;5032517;28;20441;-70
2023/05/19 06:11:36;;;;;;;8.47;5.43;;;;;;;11.37;65.29;96561.63;5032183;28;20267;-71
2023/05/19 06:14:02;;;;;;;10.07;4.93;;;;;;;10.71;64.77;96580.19;5032209;28;20211;-73
2023/05/19 06:16:27;;;;;;;9.20;5.70;;;;;;;10.44;66.39;96576.94;5032187;28;20174;-71
2023/05/19 06:18:53;;;;;;;10.60;5.80;;;;;;;10.56;66.57;96580.84;5032606;28;20187;-73
2023/05/19 06:21:18;;;;;;;8.83;5.10;;;;;;;10.85;65.64;96581.41;5013488;28;20208;-73
2023/05/19 06:23:44;;;;;;;6.60;5.03;;;;;;;10.84;65.68;96571.81;5013102;28;20717;-71
2023/05/19 06:26:09;;;;;;;8.23;6.00;;;;;;;10.68;65.32;96572.47;5014577;28;20199;-71
2023/05/19 06:28:34;;;;;;;10.20;6.63;;;;;;;10.67;65.75;96578.63;5014068;28;20172;-71
2023/05/19 06:31:00;;;;;;;10.83;5.93;;;;;;;10.71;65.43;96574.94;5028970;28;20306;-72
2023/05/19 06:33:25;;;;;;;8.67;5.80;;;;;;;10.75;65.31;96581.78;5025008;28;20192;-72
2023/05/19 06:35:51;;;;;;;9.87;4.97;;;;;;;10.81;65.11;96578.88;5024964;28;20270;-72
2023/05/19 06:38:16;;;;;;;8.03;6.07;;;;;;;10.90;65.11;96579.44;5013890;28;20176;-71
2023/05/19 06:40:42;;;;;;;10.23;5.87;;;;;;;10.95;65.44;96578.31;5013174;28;20240;-72
2023/05/19 06:43:08;;;;;;;11.30;5.70;;;;;;;11.10;64.43;96576.81;5012389;28;20172;-72
2023/05/19 06:45:33;;;;;;;11.40;5.93;;;;;;;11.04;64.87;96579.69;5012762;28;20196;-74
2023/05/19 06:47:59;;;;;;;9.10;5.93;;;;;;;11.29;64.54;96582.13;5013102;28;20219;-71
2023/05/19 06:50:25;;;;;;;8.60;5.20;;;;;;;11.21;64.50;96581.59;5013039;28;20656;-71
2023/05/19 06:52:50;;;;;;;8.63;6.10;;;;;;;11.38;64.50;96575.59;5026634;28;20820;-70
2023/05/19 06:55:15;;;;;;;7.90;5.60;;;;;;;11.43;63.59;96573.63;5032326;28;20226;-71
2023/05/19 06:57:41;;;;;;;11.70;5.93;;;;;;;11.48;63.59;96578.66;5030865;28;20187;-69
2023/05/19 07:00:11;;;;;;;6.90;5.73;;;;;;;11.61;63.30;96578.06;5029472;28;20257;-70
2023/05/19 07:02:39;;;;;;;8.60;6.63;;;;;;;11.72;62.55;96574.94;5029563;28;20879;-72
2023/05/19 07:05:05;;;;;;;9.50;6.60;;;;;;;11.67;63.40;96571.69;5029198;28;20516;-72
2023/05/19 07:07:30;;;;;;;12.47;7.00;;;;;;;11.48;63.57;96574.28;5029643;28;20415;-73
2023/05/19 07:09:56;;;;;;;9.53;5.50;;;;;;;11.55;63.39;96565.22;5029627;28;20191;-71
2023/05/19 07:12:21;;;;;;;7.17;5.43;;;;;;;11.82;62.52;96560.44;5029336;28;20583;-71
2023/05/19 07:14:47;;;;;;;6.00;5.40;;;;;;;11.95;61.84;96554.66;5030211;28;20195;-72
2023/05/19 07:17:13;;;;;;;9.30;5.63;;;;;;;12.22;61.72;96558.59;5030159;28;20321;-71
2023/05/19 07:19:38;;;;;;;17.00;6.10;;;;;;;12.18;61.38;96558.81;5030234;28;20176;-72
2023/05/19 07:22:04;;;;;;;9.43;6.47;;;;;;;12.20;60.83;96555.19;5029618;28;20990;-71
2023/05/19 07:24:30;;;;;;;7.43;5.37;;;;;;;12.34;61.25;96556.31;5029742;28;20195;-72
2023/05/19 07:26:56;;;;;;;7.07;6.27;;;;;;;12.27;61.61;96555.75;5029318;28;20182;-70
2023/05/19 07:29:21;;;;;;;7.00;5.47;;;;;;;12.45;60.90;96554.03;5029238;28;20797;-71
2023/05/19 07:31:46;;;;;;;6.53;5.93;;;;;;;12.63;60.08;96571.53;5030013;28;20657;-72
2023/05/19 07:34:12;;;;;;;8.50;5.80;;;;;;;12.73;59.94;96550.84;5030038;28;20202;-72
2023/05/19 07:36:37;;;;;;;9.63;6.47;;;;;;;12.37;60.97;96556.16;5029525;28;20176;-70
2023/05/19 07:39:03;;;;;;;7.13;5.87;;;;;;;12.42;61.13;96554.16;5030105;28;20625;-71
2023/05/19 07:41:28;;;;;;;11.27;6.63;;;;;;;12.55;60.82;96560.53;5029361;28;20231;-71
2023/05/19 07:43:54;;;;;;;8.93;6.30;;;;;;;12.53;60.41;96556.28;5029239;28;20179;-72
2023/05/19 07:46:19;;;;;;;7.23;6.20;;;;;;;12.61;59.97;96559.38;5029643;28;20656;-72
2023/05/19 07:48:44;;;;;;;8.97;6.70;;;;;;;12.63;59.80;96553.09;5029557;28;20923;-73
2023/05/19 07:51:11;;;;;;;7.50;5.77;;;;;;;12.78;59.38;96548.88;5029614;28;20241;-71
2023/05/19 07:53:37;;;;;;;7.23;5.90;;;;;;;12.77;58.76;96549.78;5009227;28;20263;-74
2023/05/19 07:56:02;;;;;;;11.50;7.13;;;;;;;12.61;58.97;96552.31;5009415;28;20476;-72
2023/05/19 07:58:28;;;;;;;8.97;6.43;;;;;;;12.58;58.67;96557.75;5009214;28;20221;-73
2023/05/19 08:00:57;;;;;;;9.00;7.40;;;;;;;12.67;58.18;96543.28;5009358;28;20204;-73
2023/05/19 08:03:23;;;;;;;10.80;6.10;;;;;;;12.69;58.31;96559.84;5007756;28;20333;-70
2023/05/19 08:05:48;;;;;;;9.53;6.67;;;;;;;12.75;57.96;96549.00;5009137;28;20493;-72
2023/05/19 08:08:15;;;;;;;9.30;6.33;;;;;;;12.81;57.80;96546.06;5008927;28;20179;-74
2023/05/19 08:10:41;;;;;;;10.40;5.87;;;;;;;12.80;58.14;96546.97;5008946;28;20191;-70
2023/05/19 08:13:06;;;;;;;6.67;6.07;;;;;;;12.68;58.27;96550.22;5009059;28;20415;-72
2023/05/19 08:15:31;;;;;;;6.90;5.60;;;;;;;12.84;58.34;96550.31;5008965;28;20271;-72
2023/05/19 08:17:57;;;;;;;12.60;6.50;;;;;;;12.86;58.14;96544.03;5009078;28;20532;-71
2023/05/19 08:20:23;;;;;;;6.60;5.70;;;;;;;12.85;57.96;96544.13;5008971;28;20168;-72
2023/05/19 08:22:48;;;;;;;8.57;7.00;;;;;;;12.77;58.17;96541.88;5009162;28;20684;-75
2023/05/19 08:25:14;;;;;;;8.53;6.77;;;;;;;12.74;59.38;96544.66;5008632;28;20673;-73
2023/05/19 08:27:39;;;;;;;10.50;6.90;;;;;;;12.92;59.09;96541.13;5008788;28;20176;-71
2023/05/19 08:30:05;;;;;;;10.53;6.37;;;;;;;12.60;59.16;96547.16;5009134;28;20184;-72
2023/05/19 08:32:31;;;;;;;8.33;5.93;;;;;;;12.77;58.24;96544.50;5009215;28;20177;-71
2023/05/19 08:34:56;;;;;;;28.13;8.33;;;;;;;12.53;59.22;96551.84;5011078;28;20431;-72
2023/05/19 08:37:22;;;;;;;7.33;6.27;;;;;;;12.71;59.37;96535.16;5009004;28;20168;-71
2023/05/19 08:39:47;;;;;;;6.97;5.80;;;;;;;12.72;59.51;96538.63;5008709;28;20178;-71
2023/05/19 08:42:12;;;;;;;9.23;6.27;;;;;;;12.98;58.92;96533.81;5008547;28;20579;-72
2023/05/19 08:44:38;;;;;;;10.17;6.50;;;;;;;12.82;57.93;96534.59;5008186;28;20245;-72
2023/05/19 08:47:05;;;;;;;10.53;8.40;;;;;;;12.93;57.67;96539.31;4990858;28;20218;-72
2023/05/19 08:49:34;;;;;;;9.10;6.13;;;;;;;12.97;58.27;96534.75;5008397;28;21151;-73
2023/05/19 08:52:08;;;;;;;9.40;7.53;;;;;;;12.87;58.25;96534.34;5015128;28;20438;-72
2023/05/19 08:54:44;;;;;;;9.30;6.23;;;;;;;13.08;57.34;96541.16;5028675;28;20425;-71
2023/05/19 08:57:11;;;;;;;9.90;5.40;;;;;;;12.76;56.72;96520.91;5028823;28;20412;-71
2023/05/19 08:59:36;;;;;;;8.43;6.17;;;;;;;12.91;57.14;96528.84;5028136;28;20414;-71
2023/05/19 09:02:03;;;;;;;9.73;6.73;;;;;;;13.01;57.80;96521.34;5026547;28;20462;-71
2023/05/19 09:04:29;;;;;;;8.10;6.20;;;;;;;13.00;56.87;96524.91;5027956;28;20583;-71
2023/05/19 09:06:55;;;;;;;6.93;5.87;;;;;;;12.72;58.32;96525.47;5027945;28;20513;-71
2023/05/19 09:09:21;;;;;;;7.87;5.90;;;;;;;12.96;58.04;96528.63;5027962;28;20880;-69
2023/05/19 09:11:46;;;;;;;6.90;6.17;;;;;;;12.78;57.51;96526.91;5027870;28;20403;-71
2023/05/19 09:14:12;;;;;;;11.53;5.30;;;;;;;12.87;58.14;96523.81;5027805;28;20286;-72
2023/05/19 09:16:38;;;;;;;10.30;6.60;;;;;;;12.64;58.18;96528.50;5028043;28;20190;-72
2023/05/19 09:19:03;;;;;;;8.00;6.60;;;;;;;12.77;57.92;96528.72;5027897;28;20259;-72
2023/05/19 09:21:30;;;;;;;8.43;5.80;;;;;;;12.86;57.87;96530.03;5027190;28;21033;-71
2023/05/19 09:23:57;;;;;;;7.00;5.60;;;;;;;12.87;58.17;96526.47;5028146;28;20167;-73
2023/05/19 09:26:24;;;;;;;6.43;5.53;;;;;;;13.09;56.77;96518.31;5027972;28;20468;-72
2023/05/19 09:28:49;;;;;;;10.90;5.43;;;;;;;12.94;56.38;96517.31;5028206;28;20510;-72
2023/05/19 09:31:15;;;;;;;8.47;5.70;;;;;;;13.18;56.00;96516.97;5028124;28;20470;-73
2023/05/19 09:33:41;;;;;;;9.50;5.50;;;;;;;12.89;55.28;96525.44;5027562;28;20168;-72
2023/05/19 09:36:07;;;;;;;7.67;4.70;;;;;;;13.03;55.25;96519.47;5027698;28;20202;-71
2023/05/19 09:38:37;;;;;;;10.40;6.13;;;;;;;13.21;54.72;96522.09;5027890;28;20425;-72
2023/05/19 09:41:04;;;;;;;6.40;5.63;;;;;;;13.16;55.68;96524.97;5028442;28;20484;-71
2023/05/19 09:43:32;;;;;;;7.40;5.57;;;;;;;13.51;54.72;96515.22;5027226;28;20489;-69
2023/05/19 09:46:10;;;;;;;7.83;5.63;;;;;;;13.48;54.51;96511.91;5027453;28;20958;-72
2023/05/19 09:48:36;;;;;;;6.90;5.00;;;;;;;13.61;53.03;96525.28;5027766;28;20437;-71
2023/05/19 09:51:04;;;;;;;9.30;5.40;;;;;;;13.68;53.09;96511.69;5027878;28;20946;-74
2023/05/19 09:53:32;;;;;;;8.13;5.17;;;;;;;13.60;53.62;96516.50;5026839;28;20513;-69
2023/05/19 09:56:00;;;;;;;5.30;4.80;;;;;;;13.93;53.44;96505.88;5026518;28;20469;-73
2023/05/19 09:58:30;;;;;;;6.13;4.60;;;;;;;13.71;53.12;96513.31;5027226;28;20414;-71
2023/05/19 10:00:57;;;;;;;8.27;5.80;;;;;;;13.37;53.53;96517.75;5026936;28;20519;-71
2023/05/19 10:03:24;;;;;;;10.83;5.67;;;;;;;13.18;53.50;96520.47;5028279;28;20413;-71
2023/05/19 10:05:51;;;;;;;5.57;4.93;;;;;;;13.41;53.45;96511.38;5028212;28;20449;-70
2023/05/19 10:08:17;;;;;;;6.53;5.80;;;;;;;13.26;54.00;96526.19;5026805;28;20477;-71
2023/05/19 10:10:45;;;;;;;8.33;6.13;;;;;;;13.23;53.91;96513.19;5026600;28;20424;-73
2023/05/19 10:13:12;;;;;;;7.87;6.43;;;;;;;13.47;53.67;96511.06;5026664;28;20678;-71
2023/05/19 10:15:39;;;;;;;6.53;5.00;;;;;;;13.73;53.05;96509.63;5026256;28;20421;-73
2023/05/19 10:18:07;;;;;;;10.70;6.00;;;;;;;13.72;52.18;96504.44;5027289;28;20445;-72
2023/05/19 10:20:34;;;;;;;7.80;5.50;;;;;;;12.98;53.71;96504.84;5026913;28;20417;-72
2023/05/19 10:23:01;;;;;;;8.00;5.40;;;;;;;13.20;53.94;96515.09;5027210;28;20410;-72
2023/05/19 10:25:28;;;;;;;8.63;4.70;;;;;;;13.41;53.17;96510.53;5026259;28;20433;-74
2023/05/19 10:28:08;;;;;;;6.83;4.93;;;;;;;13.15;54.05;96517.97;5026457;28;20511;-72
2023/05/19 10:30:38;;;;;;;6.30;5.70;;;;;;;13.31;53.90;96511.00;5026590;28;20398;-73
2023/05/19 10:33:08;;;;;;;10.67;7.00;;;;;;;13.54;53.09;96503.66;5028267;28;20430;-73
2023/05/19 10:35:58;;;;;;;5.50;5.00;;;;;;;13.85;53.38;96499.34;5029888;28;20494;-73
2023/05/19 10:38:41;;;;;;;6.43;5.27;;;;;;;13.92;51.87;96503.34;5030450;28;20456;-73
2023/05/19 10:41:26;;;;;;;6.03;5.20;;;;;;;13.46;52.63;96503.22;5030748;28;20537;-72
2023/05/19 10:44:05;;;;;;;6.10;5.50;;;;;;;13.40;53.59;96499.13;5036279;28;20433;-72
2023/05/19 10:46:31;;;;;;;8.17;6.00;;;;;;;13.69;53.60;96496.69;5033488;28;20483;-71
2023/05/19 10:48:56;;;;;;;7.53;5.53;;;;;;;13.54;53.67;96501.03;5032646;28;20873;-71
2023/05/19 10:51:32;;;;;;;6.67;5.40;;;;;;;13.45;53.42;96504.16;5031792;28;20168;-72
2023/05/19 10:54:01;;;;;;;7.40;6.00;;;;;;;13.62;53.19;96500.63;5010885;28;20199;-71
2023/05/19 10:56:33;;;;;;;8.30;6.73;;;;;;;13.78;53.60;96506.75;5011435;28;20429;-70
2023/05/19 10:59:00;;;;;;;6.60;5.40;;;;;;;13.88;52.70;96505.28;5012096;28;20487;-72
2023/05/19 11:01:33;;;;;;;6.83;6.13;;;;;;;13.84;52.32;96502.91;5009819;28;21246;-73
2023/05/19 11:04:07;;;;;;;7.70;6.63;;;;;;;13.76;52.95;96512.09;5009251;28;20414;-73
2023/05/19 11:06:36;;;;;;;7.80;6.40;;;;;;;13.66;53.21;96505.63;5009829;28;20411;-70
2023/05/19 11:09:16;;;;;;;9.40;6.27;;;;;;;13.73;53.88;96509.63;5011394;28;20434;-72
2023/05/19 11:11:47;;;;;;;7.27;6.03;;;;;;;13.58;54.99;96512.25;5012048;28;20489;-72
2023/05/19 11:14:17;;;;;;;8.10;6.00;;;;;;;13.41;54.31;96513.16;5009373;28;20459;-70
2023/05/19 11:16:58;;;;;;;8.40;6.20;;;;;;;13.31;54.94;96521.56;5010208;28;20410;-73
2023/05/19 11:19:31;;;;;;;7.17;6.47;;;;;;;13.40;54.42;96512.31;5008293;28;20495;-71
2023/05/19 11:22:07;;;;;;;7.17;6.23;;;;;;;13.50;54.31;96516.16;5015382;28;20530;-71
2023/05/19 11:24:43;;;;;;;7.80;6.00;;;;;;;13.36;55.49;96516.03;5010307;28;20415;-72
2023/05/19 11:27:29;;;;;;;6.20;5.60;;;;;;;13.25;55.73;96521.88;5009227;28;20406;-72
2023/05/19 11:29:59;;;;;;;8.27;6.73;;;;;;;13.14;55.71;96508.38;5009393;28;20472;-72
2023/05/19 11:32:27;;;;;;;8.50;7.57;;;;;;;13.24;55.61;96506.13;5009437;28;20461;-73
2023/05/19 11:34:54;;;;;;;11.07;7.10;;;;;;;13.36;55.29;96500.22;5010643;28;20455;-72